Time;durP1;ratioP1;P1;durP2;ratioP2;P2;SDS_P1;SDS_P2;PMS_P1;PMS_P2;Temp;Humidity;BMP_temperature;BMP_pressure;BME280_temperature;BME280_humidity;BME280_pressure;Samples;Min_cycle;Max_cycle;Signal;HPM_P1;HPM_P2
2022/01/18 00:01:24;;;;;;;;;;;;;;;3.90;45.17;100035.56;4482619;32;33476;-84
2022/01/18 00:03:51;;;;;;;;;;;;;;;3.41;46.30;100035.47;4482550;32;34137;-85
2022/01/18 00:06:18;;;;;;;;;;;;;;;3.74;45.09;100037.19;4482226;32;34068;-84
2022/01/18 00:08:46;;;;;;;;;;;;;;;3.90;45.77;100043.25;4481447;32;34264;-84
2022/01/18 00:11:16;;;;;;;;;;;;;;;3.72;45.55;100043.94;4482961;32;33632;-86
2022/01/18 00:13:46;;;;;;;;;;;;;;;3.68;45.85;100042.91;4482660;32;33857;-86
2022/01/18 00:18:52;;;;;;;;;;;;;;;3.52;45.80;100066.78;4482870;32;35239;-81
2022/01/18 00:21:28;;;;;;;;;;;;;;;3.93;44.72;100057.03;4481659;32;33527;-84
2022/01/18 00:23:57;;;;;;;;;;;;;;;3.18;46.55;100069.16;4478908;32;34154;-85
2022/01/18 00:26:28;;;;;;;;;;;;;;;3.62;46.31;100079.31;4482316;32;35007;-84
2022/01/18 00:28:59;;;;;;;;;;;;;;;3.70;45.68;100084.00;4482273;32;34288;-84
2022/01/18 00:34:04;;;;;;;;;;;;;;;3.95;45.38;100099.94;4483001;32;35117;-84
2022/01/18 00:36:39;;;;;;;;;;;;;;;3.49;46.38;100102.53;4481472;32;34274;-85
2022/01/18 00:39:07;;;;;;;;;;;;;;;3.33;46.66;100110.16;4481765;32;33970;-85
2022/01/18 00:41:35;;;;;;;;;;;;;;;4.08;44.99;100121.97;4482129;32;34405;-85
2022/01/18 00:44:02;;;;;;;;;;;;;;;4.36;44.10;100109.81;4468228;32;33489;-86
2022/01/18 00:46:30;;;;;;;;;;;;;;;3.92;45.44;100110.00;4482434;32;34249;-85
2022/01/18 00:49:00;;;;;;;;;;;;;;;4.01;44.64;100102.81;4482160;32;33857;-85
2022/01/18 00:51:28;;;;;;;;;;;;;;;4.68;43.88;100102.91;4481563;32;33623;-85
2022/01/18 00:53:58;;;;;;;;;;;;;;;4.14;45.09;100109.50;4481489;32;33967;-86
2022/01/18 00:56:28;;;;;;;;;;;;;;;3.80;46.06;100114.50;4482193;32;34483;-86
2022/01/18 00:58:55;;;;;;;;;;;;;;;3.41;47.32;100127.75;4469126;32;34293;-85
2022/01/18 01:01:23;;;;;;;;;;;;;;;3.23;47.71;100123.25;4481768;32;33755;-84
2022/01/18 01:03:52;;;;;;;;;;;;;;;3.30;47.92;100141.63;4482334;32;34001;-85
2022/01/18 01:06:20;;;;;;;;;;;;;;;3.77;46.42;100145.97;4481717;32;34291;-85
2022/01/18 01:08:47;;;;;;;;;;;;;;;4.22;46.08;100153.53;4481884;32;34250;-85
2022/01/18 01:11:14;;;;;;;;;;;;;;;4.08;45.79;100153.66;4481831;32;33078;-85
2022/01/18 01:13:44;;;;;;;;;;;;;;;4.09;46.01;100154.53;4480706;32;33876;-86
2022/01/18 01:43:20;;;;;;;;;;;;;;;4.08;46.69;100170.72;4484205;32;33251;-86
2022/01/18 01:45:49;;;;;;;;;;;;;;;4.07;46.85;100166.41;4484315;32;34238;-86
2022/01/18 01:48:22;;;;;;;;;;;;;;;3.97;47.14;100171.84;4482465;32;34697;-86
2022/01/18 01:51:04;;;;;;;;;;;;;;;4.19;46.09;100169.63;4483762;32;33709;-86
2022/01/18 01:53:32;;;;;;;;;;;;;;;2.98;48.81;100175.63;4482910;32;33136;-84
2022/01/18 01:56:01;;;;;;;;;;;;;;;4.18;46.27;100165.31;4484378;32;33599;-85
2022/01/18 01:58:32;;;;;;;;;;;;;;;3.54;47.59;100169.44;4482421;32;34166;-85
2022/01/18 02:01:04;;;;;;;;;;;;;;;4.11;46.67;100170.91;4484003;32;33778;-85
2022/01/18 02:03:33;;;;;;;;;;;;;;;3.82;46.96;100167.62;4483559;32;32817;-86
2022/01/18 02:06:02;;;;;;;;;;;;;;;4.26;45.99;100176.00;4483823;32;34126;-86
2022/01/18 02:08:30;;;;;;;;;;;;;;;4.33;45.90;100181.53;4483538;32;34141;-84
2022/01/18 02:10:57;;;;;;;;;;;;;;;4.68;45.31;100179.06;4482464;32;34277;-85
2022/01/18 02:13:25;;;;;;;;;;;;;;;4.24;46.26;100185.28;4483261;32;33066;-84
2022/01/18 02:24:01;;;;;;;;;;;;;;;3.77;47.28;100193.81;4483577;32;33328;-85
2022/01/18 02:26:29;;;;;;;;;;;;;;;3.96;47.14;100195.72;4482114;32;34197;-84
2022/01/18 02:28:59;;;;;;;;;;;;;;;4.37;45.57;100193.72;4482103;32;34042;-85
2022/01/18 02:31:27;;;;;;;;;;;;;;;5.06;44.72;100189.63;4482382;32;34001;-85
2022/01/18 02:33:55;;;;;;;;;;;;;;;3.53;47.38;100186.50;4482126;32;33196;-85
2022/01/18 02:36:22;;;;;;;;;;;;;;;4.36;45.96;100185.97;4481995;32;33656;-86
2022/01/18 02:38:49;;;;;;;;;;;;;;;4.28;46.51;100193.25;4483404;32;35200;-85
2022/01/18 02:41:25;;;;;;;;;;;;;;;4.00;47.07;100189.97;4470539;32;33983;-85
2022/01/18 02:43:55;;;;;;;;;;;;;;;4.64;45.62;100193.44;4483679;32;33796;-85
2022/01/18 02:46:23;;;;;;;;;;;;;;;4.26;46.55;100193.97;4482728;32;33868;-86
2022/01/18 02:48:50;;;;;;;;;;;;;;;4.04;47.27;100186.75;4481850;32;34814;-85
2022/01/18 02:51:18;;;;;;;;;;;;;;;4.55;45.88;100187.81;4481885;32;34898;-86
2022/01/18 02:54:05;;;;;;;;;;;;;;;4.94;44.77;100190.69;4482946;32;34154;-86
2022/01/18 02:56:34;;;;;;;;;;;;;;;4.21;46.60;100203.97;4483372;32;33145;-86
2022/01/18 02:59:10;;;;;;;;;;;;;;;3.46;48.52;100207.47;4481436;32;35151;-85
2022/01/18 03:04:24;;;;;;;;;;;;;;;3.84;47.68;100225.03;4483583;32;33809;-85
2022/01/18 03:06:51;;;;;;;;;;;;;;;4.43;46.23;100229.09;4483175;32;34019;-83
2022/01/18 03:09:19;;;;;;;;;;;;;;;4.34;46.61;100238.91;4483116;32;33534;-86
2022/01/18 03:11:46;;;;;;;;;;;;;;;3.81;47.74;100244.50;4483414;32;33466;-84
2022/01/18 03:14:14;;;;;;;;;;;;;;;4.40;46.71;100249.50;4483272;32;33265;-84
2022/01/18 03:16:41;;;;;;;;;;;;;;;5.43;44.47;100245.50;4482696;32;33643;-85
2022/01/18 03:19:08;;;;;;;;;;;;;;;5.29;44.09;100249.03;4481663;32;33759;-84
2022/01/18 03:21:35;;;;;;;;;;;;;;;4.71;45.58;100262.31;4483186;32;34505;-87
2022/01/18 03:24:30;;;;;;;;;;;;;;;4.03;46.95;100273.12;4483223;32;33048;-85
2022/01/18 03:29:37;;;;;;;;;;;;;;;4.41;46.41;100278.63;4482297;32;34159;-85
2022/01/18 03:32:05;;;;;;;;;;;;;;;4.15;47.28;100283.19;4482040;32;35232;-86
2022/01/18 03:34:32;;;;;;;;;;;;;;;4.73;45.77;100283.81;4482638;32;33374;-86
2022/01/18 03:37:00;;;;;;;;;;;;;;;5.05;44.84;100290.69;4483310;32;34929;-86
2022/01/18 03:39:27;;;;;;;;;;;;;;;5.03;44.78;100294.84;4476786;32;33771;-86
2022/01/18 03:42:02;;;;;;;;;;;;;;;4.64;45.76;100296.16;4482423;32;34186;-85
2022/01/18 03:44:31;;;;;;;;;;;;;;;4.98;45.10;100305.69;4480009;32;34606;-86
2022/01/18 03:46:58;;;;;;;;;;;;;;;4.27;46.50;100304.41;4482789;32;33837;-86
2022/01/18 03:49:27;;;;;;;;;;;;;;;3.93;47.23;100311.87;4483050;32;35259;-84
2022/01/18 03:51:55;;;;;;;;;;;;;;;4.45;46.46;100313.94;4482622;32;34684;-83
2022/01/18 03:54:23;;;;;;;;;;;;;;;4.28;46.13;100311.34;4483241;32;33637;-85
2022/01/18 03:56:51;;;;;;;;;;;;;;;5.37;44.20;100315.47;4481210;32;33710;-84
2022/01/18 03:59:18;;;;;;;;;;;;;;;5.53;43.78;100314.59;4483105;32;33808;-85
2022/01/18 04:01:45;;;;;;;;;;;;;;;6.18;42.11;100316.16;4482294;32;33607;-86
2022/01/18 04:04:13;;;;;;;;;;;;;;;5.40;43.82;100317.34;4483066;32;33003;-86
2022/01/18 04:06:40;;;;;;;;;;;;;;;6.01;42.66;100327.31;4483102;32;34558;-87
2022/01/18 04:09:07;;;;;;;;;;;;;;;5.74;42.91;100331.94;4482508;32;34176;-86
2022/01/18 04:11:35;;;;;;;;;;;;;;;6.27;41.71;100337.19;4483182;32;35890;-85
2022/01/18 04:14:02;;;;;;;;;;;;;;;5.67;42.79;100335.00;4482588;32;32775;-86
2022/01/18 04:16:30;;;;;;;;;;;;;;;5.12;44.13;100340.72;4483108;32;34113;-86
2022/01/18 04:19:22;;;;;;;;;;;;;;;5.67;43.07;100335.87;4482837;32;35126;-86
2022/01/18 04:27:21;;;;;;;;;;;;;;;6.60;40.99;100352.50;4460229;31;34287;-85
2022/01/18 04:29:48;;;;;;;;;;;;;;;6.20;41.70;100358.28;4482267;32;34846;-85
2022/01/18 04:32:15;;;;;;;;;;;;;;;6.26;41.29;100348.31;4483039;32;33923;-85
2022/01/18 04:34:43;;;;;;;;;;;;;;;6.04;42.29;100354.09;4482547;32;33270;-85
2022/01/18 04:37:14;;;;;;;;;;;;;;;6.43;41.17;100358.53;4474799;32;33579;-84
2022/01/18 04:39:43;;;;;;;;;;;;;;;5.88;42.39;100355.78;4481936;32;34310;-83
2022/01/18 04:42:18;;;;;;;;;;;;;;;6.83;40.01;100359.63;4483089;32;34041;-86
2022/01/18 04:50:18;;;;;;;;;;;;;;;5.47;43.18;100370.00;4471460;32;34262;-86
2022/01/18 04:52:45;;;;;;;;;;;;;;;5.64;42.67;100379.44;4482458;32;34442;-85
2022/01/18 04:55:13;;;;;;;;;;;;;;;6.83;40.32;100377.66;4482158;32;33638;-85
2022/01/18 04:57:53;;;;;;;;;;;;;;;6.91;39.99;100392.63;4480893;32;34118;-85
2022/01/18 05:00:20;;;;;;;;;;;;;;;6.57;40.57;100386.72;4477538;32;34204;-85
2022/01/18 05:02:48;;;;;;;;;;;;;;;5.35;42.75;100389.09;4480886;32;34579;-85
2022/01/18 05:05:23;;;;;;;;;;;;;;;5.64;42.86;100388.84;4479635;32;89576;-85
2022/01/18 05:07:54;;;;;;;;;;;;;;;5.49;42.66;100378.66;4482011;32;35080;-85
2022/01/18 05:10:23;;;;;;;;;;;;;;;5.42;43.10;100380.03;4481513;32;35527;-86
2022/01/18 05:12:53;;;;;;;;;;;;;;;5.54;42.90;100385.81;4481419;32;34600;-87
2022/01/18 05:23:28;;;;;;;;;;;;;;;5.76;43.06;100377.53;4479255;32;34453;-84
2022/01/18 05:25:56;;;;;;;;;;;;;;;5.18;43.99;100366.75;4481652;32;33490;-86
2022/01/18 05:28:23;;;;;;;;;;;;;;;3.36;48.67;100377.78;4482441;32;33977;-86
2022/01/18 05:30:50;;;;;;;;;;;;;;;4.16;46.94;100377.34;4479651;31;35367;-84
2022/01/18 05:33:18;;;;;;;;;;;;;;;4.00;47.40;100382.41;4480975;32;34377;-86
2022/01/18 05:35:45;;;;;;;;;;;;;;;3.29;48.70;100388.44;4480686;32;33799;-86
2022/01/18 05:38:17;;;;;;;;;;;;;;;3.70;48.53;100407.13;4478346;32;35024;-86
2022/01/18 05:40:44;;;;;;;;;;;;;;;4.26;47.06;100410.47;4481232;32;34412;-86
2022/01/18 05:43:11;;;;;;;;;;;;;;;2.99;49.89;100418.19;4482302;32;35266;-86
2022/01/18 05:45:39;;;;;;;;;;;;;;;3.77;48.25;100420.41;4480434;32;33663;-87
2022/01/18 05:48:06;;;;;;;;;;;;;;;3.58;48.91;100428.69;4481467;32;35084;-86
2022/01/18 05:50:35;;;;;;;;;;;;;;;4.74;46.81;100426.91;4481689;32;34479;-87
2022/01/18 05:53:02;;;;;;;;;;;;;;;4.88;46.01;100433.66;4472510;32;34487;-87
2022/01/18 05:55:31;;;;;;;;;;;;;;;3.77;49.30;100433.22;4480715;32;34674;-87
2022/01/18 05:57:58;;;;;;;;;;;;;;;3.69;49.86;100438.72;4482137;32;34293;-87
2022/01/18 06:00:27;;;;;;;;;;;;;;;4.71;46.80;100439.56;4481925;32;34552;-88
2022/01/18 06:08:16;;;;;;;;;;;;;;;5.35;45.40;100440.53;4481642;32;34239;-83
2022/01/18 06:10:43;;;;;;;;;;;;;;;5.72;43.71;100437.34;4480285;32;34668;-86
2022/01/18 06:13:12;;;;;;;;;;;;;;;5.03;45.43;100445.59;4466439;32;34330;-84
2022/01/18 06:15:39;;;;;;;;;;;;;;;4.07;47.96;100453.81;4474595;32;32833;-84
2022/01/18 06:18:06;;;;;;;;;;;;;;;4.98;45.75;100454.75;4482241;32;34537;-83
2022/01/18 06:20:34;;;;;;;;;;;;;;;4.90;46.44;100454.31;4480489;32;34982;-84
2022/01/18 06:23:02;;;;;;;;;;;;;;;4.04;48.50;100453.63;4481767;32;34663;-84
2022/01/18 06:25:30;;;;;;;;;;;;;;;4.65;46.92;100457.19;4483203;32;34018;-84
2022/01/18 06:27:57;;;;;;;;;;;;;;;5.17;45.96;100443.81;4484108;32;33844;-85
2022/01/18 06:30:24;;;;;;;;;;;;;;;4.55;47.35;100454.91;4483952;31;34125;-85
2022/01/18 06:32:51;;;;;;;;;;;;;;;5.06;46.18;100456.06;4484067;32;34411;-85
2022/01/18 06:35:19;;;;;;;;;;;;;;;5.19;45.92;100449.88;4483964;32;33629;-84
2022/01/18 06:37:46;;;;;;;;;;;;;;;4.38;47.48;100449.66;4483437;32;34121;-85
2022/01/18 06:40:14;;;;;;;;;;;;;;;4.01;48.20;100433.78;4483539;32;35715;-84
2022/01/18 06:42:41;;;;;;;;;;;;;;;4.83;47.13;100445.38;4482173;32;34843;-84
2022/01/18 06:45:09;;;;;;;;;;;;;;;4.10;49.65;100459.12;4481936;32;33385;-85
2022/01/18 06:47:36;;;;;;;;;;;;;;;4.39;47.96;100464.31;4483738;32;33786;-85
2022/01/18 06:50:07;;;;;;;;;;;;;;;3.56;50.30;100484.13;4482726;32;34363;-85
2022/01/18 06:52:34;;;;;;;;;;;;;;;4.05;49.61;100481.97;4482568;32;33964;-85
2022/01/18 06:55:02;;;;;;;;;;;;;;;4.50;48.55;100482.88;4484117;32;33510;-84
2022/01/18 06:57:29;;;;;;;;;;;;;;;3.74;50.18;100494.59;4484027;32;34212;-84
2022/01/18 06:59:56;;;;;;;;;;;;;;;3.39;51.44;100493.31;4483913;32;34803;-85
2022/01/18 07:02:23;;;;;;;;;;;;;;;3.42;51.35;100482.38;4483970;32;34839;-85
2022/01/18 07:04:51;;;;;;;;;;;;;;;3.92;50.40;100491.41;4482526;32;32723;-85
2022/01/18 07:07:18;;;;;;;;;;;;;;;3.77;50.59;100502.50;4483636;32;34593;-85
2022/01/18 07:09:45;;;;;;;;;;;;;;;3.97;50.57;100498.56;4484103;32;34503;-85
2022/01/18 07:12:13;;;;;;;;;;;;;;;3.92;50.61;100493.97;4483714;32;34360;-84
2022/01/18 07:14:40;;;;;;;;;;;;;;;4.43;49.57;100485.00;4483939;32;34396;-84
2022/01/18 07:17:08;;;;;;;;;;;;;;;4.21;49.48;100494.03;4483649;32;33633;-84
2022/01/18 07:19:36;;;;;;;;;;;;;;;4.67;48.54;100491.56;4482391;32;34461;-86
2022/01/18 07:22:03;;;;;;;;;;;;;;;4.78;47.81;100480.22;4483630;32;34665;-85
2022/01/18 07:24:45;;;;;;;;;;;;;;;4.64;48.93;100488.81;4482640;32;33261;-85
2022/01/18 07:27:13;;;;;;;;;;;;;;;4.92;48.14;100487.81;4483877;32;34570;-85
2022/01/18 07:29:42;;;;;;;;;;;;;;;4.53;49.07;100485.63;4484223;32;34919;-85
2022/01/18 07:32:09;;;;;;;;;;;;;;;4.13;50.27;100485.00;4482276;32;34446;-86
2022/01/18 07:34:41;;;;;;;;;;;;;;;3.88;51.34;100487.75;4482514;32;33082;-84
2022/01/18 07:37:09;;;;;;;;;;;;;;;3.93;51.67;100485.47;4481603;32;34125;-84
2022/01/18 07:39:37;;;;;;;;;;;;;;;3.80;51.75;100497.56;4483356;32;35384;-85
2022/01/18 07:42:04;;;;;;;;;;;;;;;4.42;50.03;100493.50;4483844;32;34104;-84
2022/01/18 07:44:31;;;;;;;;;;;;;;;4.03;51.38;100487.78;4483451;32;34290;-85
2022/01/18 07:46:59;;;;;;;;;;;;;;;4.48;50.02;100493.88;4483402;32;33848;-84
2022/01/18 07:49:26;;;;;;;;;;;;;;;4.84;49.27;100506.25;4483580;32;34196;-84
2022/01/18 07:51:53;;;;;;;;;;;;;;;4.48;49.46;100504.16;4483358;32;33755;-84
2022/01/18 07:54:21;;;;;;;;;;;;;;;4.34;50.73;100516.16;4483446;32;33632;-85
2022/01/18 07:56:48;;;;;;;;;;;;;;;4.93;49.36;100520.44;4483461;32;33921;-85
2022/01/18 07:59:15;;;;;;;;;;;;;;;4.63;49.29;100520.44;4482284;32;33743;-84
2022/01/18 08:01:42;;;;;;;;;;;;;;;3.81;51.58;100544.59;4483315;32;34329;-84
2022/01/18 08:04:10;;;;;;;;;;;;;;;3.86;51.81;100548.34;4483386;32;33615;-85
2022/01/18 08:06:38;;;;;;;;;;;;;;;4.36;50.66;100551.41;4483570;32;34188;-84
2022/01/18 08:09:05;;;;;;;;;;;;;;;4.89;49.26;100539.94;4481842;32;35315;-86
2022/01/18 08:11:32;;;;;;;;;;;;;;;4.26;50.63;100538.81;4483377;32;35378;-84
2022/01/18 08:14:01;;;;;;;;;;;;;;;5.43;48.12;100545.50;4483493;32;34325;-85
2022/01/18 08:18:57;;;;;;;;;;;;;;;4.84;49.19;100552.50;4482029;32;34602;-84
2022/01/18 08:21:25;;;;;;;;;;;;;;;4.39;50.29;100551.59;4482059;32;34519;-85
2022/01/18 08:23:52;;;;;;;;;;;;;;;3.71;52.02;100573.91;4481908;32;33210;-86
2022/01/18 08:26:20;;;;;;;;;;;;;;;4.45;50.84;100579.31;4483351;32;33967;-85
2022/01/18 08:28:47;;;;;;;;;;;;;;;4.23;51.00;100591.66;4483236;32;34652;-85
2022/01/18 08:31:14;;;;;;;;;;;;;;;3.92;51.87;100594.91;4483338;32;34326;-84
2022/01/18 08:33:42;;;;;;;;;;;;;;;4.43;50.96;100606.56;4483098;32;33184;-84
2022/01/18 08:36:09;;;;;;;;;;;;;;;3.82;51.96;100597.69;4482139;32;34006;-85
2022/01/18 08:38:37;;;;;;;;;;;;;;;4.61;50.33;100586.22;4483093;32;35301;-85
2022/01/18 08:41:04;;;;;;;;;;;;;;;3.88;51.76;100601.53;4483326;32;34229;-85
2022/01/18 08:43:32;;;;;;;;;;;;;;;3.83;52.75;100602.94;4483420;32;33747;-84
2022/01/18 08:46:00;;;;;;;;;;;;;;;3.85;52.32;100610.69;4482981;32;34388;-85
2022/01/18 08:48:28;;;;;;;;;;;;;;;4.22;51.66;100607.84;4481568;32;34848;-84
2022/01/18 08:50:55;;;;;;;;;;;;;;;4.30;51.63;100606.63;4482991;32;34358;-85
2022/01/18 08:53:22;;;;;;;;;;;;;;;4.34;51.64;100608.59;4482692;32;33454;-86
2022/01/18 08:55:50;;;;;;;;;;;;;;;5.09;49.36;100608.78;4483012;32;34269;-85
2022/01/18 08:58:17;;;;;;;;;;;;;;;4.68;50.16;100602.91;4482927;32;33262;-85
2022/01/18 09:00:46;;;;;;;;;;;;;;;4.27;51.78;100612.47;4482720;32;34487;-85
2022/01/18 09:03:14;;;;;;;;;;;;;;;4.52;51.15;100608.81;4482922;32;33747;-86
2022/01/18 09:05:43;;;;;;;;;;;;;;;5.11;49.24;100619.13;4482932;32;34094;-85
2022/01/18 09:08:12;;;;;;;;;;;;;;;4.10;51.72;100625.97;4482793;32;34237;-87
2022/01/18 09:10:40;;;;;;;;;;;;;;;5.48;48.25;100627.25;4481728;32;34264;-87
2022/01/18 09:13:07;;;;;;;;;;;;;;;4.53;50.34;100634.56;4481924;32;33419;-87
2022/01/18 09:15:34;;;;;;;;;;;;;;;4.68;49.81;100624.34;4483021;32;34437;-87
2022/01/18 09:18:02;;;;;;;;;;;;;;;5.06;48.66;100625.69;4482770;32;34131;-86
2022/01/18 09:20:30;;;;;;;;;;;;;;;5.24;49.25;100637.06;4482840;32;34070;-85
2022/01/18 09:22:58;;;;;;;;;;;;;;;4.58;50.03;100648.59;4482907;32;33345;-84
2022/01/18 09:25:27;;;;;;;;;;;;;;;5.22;48.29;100645.47;4482721;32;34157;-84
2022/01/18 09:27:54;;;;;;;;;;;;;;;5.07;48.53;100648.03;4481431;32;34155;-85
2022/01/18 09:30:22;;;;;;;;;;;;;;;6.21;45.83;100656.22;4481186;32;33923;-85
2022/01/18 09:32:50;;;;;;;;;;;;;;;5.76;46.76;100655.44;4481141;32;33715;-88
2022/01/18 09:35:17;;;;;;;;;;;;;;;5.21;47.84;100656.56;4481235;32;34011;-84
2022/01/18 09:37:44;;;;;;;;;;;;;;;4.77;48.74;100671.16;4482472;32;34452;-85
2022/01/18 09:40:14;;;;;;;;;;;;;;;4.88;48.66;100664.06;4482608;32;33943;-86
2022/01/18 09:42:43;;;;;;;;;;;;;;;4.72;48.92;100664.81;4482210;32;34510;-86
2022/01/18 09:45:12;;;;;;;;;;;;;;;5.02;47.67;100659.75;4482434;32;34718;-85
2022/01/18 09:47:40;;;;;;;;;;;;;;;4.13;49.95;100654.37;4480941;32;35216;-86
2022/01/18 09:50:09;;;;;;;;;;;;;;;5.19;47.73;100671.00;4482274;32;34280;-87
2022/01/18 09:52:38;;;;;;;;;;;;;;;5.68;45.96;100656.66;4481103;32;34055;-84
2022/01/18 09:55:07;;;;;;;;;;;;;;;5.28;46.74;100663.81;4481054;32;34244;-84
2022/01/18 09:57:35;;;;;;;;;;;;;;;4.98;47.75;100648.38;4480945;32;34393;-85
2022/01/18 10:00:03;;;;;;;;;;;;;;;5.09;47.73;100661.88;4481882;32;34761;-87
2022/01/18 10:02:37;;;;;;;;;;;;;;;4.87;47.97;100654.56;4484606;32;34427;-85
2022/01/18 10:05:18;;;;;;;;;;;;;;;5.84;46.09;100655.88;4484492;32;34066;-85
2022/01/18 10:07:45;;;;;;;;;;;;;;;5.48;46.75;100652.97;4484216;31;34180;-78
2022/01/18 10:10:13;;;;;;;;;;;;;;;6.37;44.79;100636.44;4483110;32;33931;-84
2022/01/18 10:12:40;;;;;;;;;;;;;;;6.10;44.75;100647.03;4484307;32;33707;-84
2022/01/18 10:15:07;;;;;;;;;;;;;;;5.49;46.23;100659.00;4484205;32;34216;-84
2022/01/18 10:17:38;;;;;;;;;;;;;;;5.48;46.22;100657.25;4483971;32;34004;-85
2022/01/18 10:20:19;;;;;;;;;;;;;;;5.57;46.46;100658.66;4484340;32;34158;-85
2022/01/18 10:22:49;;;;;;;;;;;;;;;5.23;47.37;100676.44;4482675;32;34288;-84
2022/01/18 10:25:17;;;;;;;;;;;;;;;4.60;49.01;100679.50;4484236;32;34594;-85
2022/01/18 10:27:47;;;;;;;;;;;;;;;5.91;45.44;100667.34;4483008;32;34860;-85
2022/01/18 10:30:21;;;;;;;;;;;;;;;5.76;46.00;100676.03;4483729;32;34615;-85
2022/01/18 10:33:02;;;;;;;;;;;;;;;5.72;46.02;100673.16;4484054;32;33470;-86
2022/01/18 10:35:31;;;;;;;;;;;;;;;6.43;44.82;100665.06;4484055;32;34713;-85
2022/01/18 10:37:58;;;;;;;;;;;;;;;5.57;46.23;100662.94;4483197;32;33621;-86
2022/01/18 10:40:26;;;;;;;;;;;;;;;5.59;46.10;100653.59;4483183;32;34673;-80
2022/01/18 10:42:54;;;;;;;;;;;;;;;5.92;45.18;100635.69;4483873;32;33557;-85
2022/01/18 10:45:30;;;;;;;;;;;;;;;5.53;46.24;100661.88;4483935;32;34561;-86
2022/01/18 10:48:12;;;;;;;;;;;;;;;5.57;46.74;100658.66;4484064;32;34779;-85
2022/01/18 10:50:41;;;;;;;;;;;;;;;5.56;46.35;100650.84;4483033;32;34097;-84
2022/01/18 10:53:12;;;;;;;;;;;;;;;4.88;47.93;100654.66;4484013;32;33989;-88
2022/01/18 10:55:40;;;;;;;;;;;;;;;5.09;47.43;100656.72;4482610;32;33918;-85
2022/01/18 10:58:18;;;;;;;;;;;;;;;5.13;47.32;100649.28;4483651;32;34079;-84
2022/01/18 11:00:46;;;;;;;;;;;;;;;5.40;46.09;100645.62;4482413;32;34191;-84
2022/01/18 11:03:13;;;;;;;;;;;;;;;5.52;46.21;100646.31;4483007;32;34236;-84
2022/01/18 11:05:42;;;;;;;;;;;;;;;5.45;46.06;100646.78;4483968;32;34513;-84
2022/01/18 11:08:09;;;;;;;;;;;;;;;5.96;45.30;100653.09;4483653;32;34220;-88
2022/01/18 11:10:40;;;;;;;;;;;;;;;6.38;44.40;100643.34;4467707;32;33843;-85
2022/01/18 11:13:34;;;;;;;;;;;;;;;5.74;45.62;100662.16;4467890;32;33976;-86
2022/01/18 11:16:05;;;;;;;;;;;;;;;5.59;45.33;100656.16;4468231;32;33968;-85
2022/01/18 11:18:36;;;;;;;;;;;;;;;5.90;45.14;100666.47;4468034;32;34399;-86
2022/01/18 11:21:04;;;;;;;;;;;;;;;5.90;44.82;100678.47;4454714;32;34225;-85
2022/01/18 11:23:32;;;;;;;;;;;;;;;6.18;44.42;100665.47;4454265;32;34042;-86
2022/01/18 11:26:00;;;;;;;;;;;;;;;5.63;45.28;100658.09;4453702;32;34677;-84
2022/01/18 11:28:29;;;;;;;;;;;;;;;5.91;44.84;100663.13;4467744;32;33892;-86
2022/01/18 11:30:56;;;;;;;;;;;;;;;5.78;44.93;100663.22;4453936;32;34187;-85
2022/01/18 11:33:23;;;;;;;;;;;;;;;5.38;45.59;100661.00;4453925;32;34404;-85
2022/01/18 11:35:57;;;;;;;;;;;;;;;5.70;45.29;100670.53;4467898;32;34254;-86
2022/01/18 11:38:27;;;;;;;;;;;;;;;6.51;43.64;100667.25;4454308;32;34880;-85
2022/01/18 11:40:55;;;;;;;;;;;;;;;5.69;44.55;100661.03;4468133;32;34212;-84
2022/01/18 11:43:33;;;;;;;;;;;;;;;5.55;45.45;100669.66;4467734;32;33605;-85
2022/01/18 11:46:08;;;;;;;;;;;;;;;5.12;46.39;100682.62;4453584;32;33991;-85
2022/01/18 11:48:43;;;;;;;;;;;;;;;6.06;44.83;100696.56;4453910;32;33629;-85
2022/01/18 11:51:17;;;;;;;;;;;;;;;5.52;45.36;100690.06;4467782;32;34297;-85
2022/01/18 11:56:37;;;;;;;;;;;;;;;5.24;46.27;100688.47;4454574;32;34031;-85
2022/01/18 11:59:17;;;;;;;;;;;;;;;5.23;46.21;100679.00;4467860;32;34376;-84
2022/01/18 12:01:46;;;;;;;;;;;;;;;6.33;44.57;100682.62;4467626;32;34156;-85
2022/01/18 12:04:14;;;;;;;;;;;;;;;6.57;43.44;100675.31;4453912;32;33335;-85
2022/01/18 12:06:45;;;;;;;;;;;;;;;6.58;43.49;100660.72;4453689;32;34849;-85
2022/01/18 12:09:31;;;;;;;;;;;;;;;6.20;43.66;100667.31;4464236;31;33966;-85
2022/01/18 12:11:59;;;;;;;;;;;;;;;5.80;44.60;100656.50;4499129;31;34941;-85
2022/01/18 12:14:33;;;;;;;;;;;;;;;6.02;44.25;100668.88;4499101;31;33835;-84
2022/01/18 12:17:14;;;;;;;;;;;;;;;6.20;43.75;100669.88;4485239;31;35265;-84
2022/01/18 12:19:41;;;;;;;;;;;;;;;7.38;41.61;100664.78;4499337;31;35178;-86
2022/01/18 12:22:09;;;;;;;;;;;;;;;6.47;42.71;100669.59;4498764;31;34617;-85
2022/01/18 12:24:46;;;;;;;;;;;;;;;6.09;43.82;100670.97;4499200;31;34030;-85
2022/01/18 12:27:33;;;;;;;;;;;;;;;6.26;43.52;100675.38;4499245;31;34835;-85
2022/01/18 12:30:27;;;;;;;;;;;;;;;6.53;42.61;100673.38;4485118;31;33856;-85
2022/01/18 12:33:27;;;;;;;;;;;;;;;6.65;42.19;100669.69;4499135;31;34292;-84
2022/01/18 12:36:14;;;;;;;;;;;;;;;6.29;43.69;100696.16;4464859;31;33279;-86
2022/01/18 12:38:41;;;;;;;;;;;;;;;5.76;44.25;100691.47;4499228;31;33964;-85
2022/01/18 12:41:08;;;;;;;;;;;;;;;7.29;41.27;100689.34;4484642;31;33875;-85
2022/01/18 12:46:22;;;;;;;;;;;;;;;6.18;43.97;100697.25;4499056;31;33462;-86
2022/01/18 12:48:50;;;;;;;;;;;;;;;6.05;44.28;100697.38;4499001;31;34035;-84
2022/01/18 12:51:18;;;;;;;;;;;;;;;6.53;43.40;100698.25;4484617;31;34334;-83
2022/01/18 12:53:46;;;;;;;;;;;;;;;6.05;43.65;100689.66;4499108;31;34234;-85
2022/01/18 12:56:13;;;;;;;;;;;;;;;6.74;42.07;100696.84;4484879;31;34197;-84
2022/01/18 12:58:48;;;;;;;;;;;;;;;6.09;43.31;100686.44;4499106;31;34981;-84
2022/01/18 13:01:16;;;;;;;;;;;;;;;5.81;44.55;100697.75;4484971;31;34845;-80
2022/01/18 13:03:46;;;;;;;;;;;;;;;6.01;44.38;100698.00;4498806;31;35110;-85
2022/01/18 13:06:13;;;;;;;;;;;;;;;6.34;43.92;100702.44;4484611;31;33033;-86
2022/01/18 13:08:44;;;;;;;;;;;;;;;6.03;44.11;100699.88;4498614;31;34562;-88
2022/01/18 13:11:11;;;;;;;;;;;;;;;6.40;43.40;100685.50;4498508;31;34278;-86
2022/01/18 13:13:38;;;;;;;;;;;;;;;6.57;43.38;100682.16;4498855;31;34741;-86
2022/01/18 13:22:56;;;;;;;;;;;;;;;5.29;45.73;100681.91;4484356;31;33185;-89
2022/01/18 13:27:34;;;;;;;;;;;;;;;5.43;46.11;100704.97;4498524;31;34413;-84
2022/01/18 13:30:29;;;;;;;;;;;;;;;6.61;43.63;100693.53;4486183;31;33725;-85
2022/01/18 13:32:59;;;;;;;;;;;;;;;5.79;45.24;100701.91;4496742;31;34720;-85
2022/01/18 13:35:29;;;;;;;;;;;;;;;5.81;45.08;100695.19;4485445;31;34133;-85
2022/01/18 13:37:58;;;;;;;;;;;;;;;5.47;46.27;100701.78;4500972;31;32948;-85
2022/01/18 13:40:26;;;;;;;;;;;;;;;5.83;45.64;100703.88;4500635;31;34301;-85
2022/01/18 13:43:04;;;;;;;;;;;;;;;5.35;46.36;100689.97;4500227;31;33364;-85
2022/01/18 13:45:32;;;;;;;;;;;;;;;5.48;46.09;100682.97;4486476;31;34172;-84
2022/01/18 13:48:06;;;;;;;;;;;;;;;5.59;46.14;100694.75;4485888;31;33146;-85
2022/01/18 13:50:56;;;;;;;;;;;;;;;5.49;46.90;100698.50;4500180;31;35056;-85
2022/01/18 13:53:30;;;;;;;;;;;;;;;6.07;45.40;100706.06;4500065;31;34546;-86
2022/01/18 13:55:58;;;;;;;;;;;;;;;5.83;46.01;100692.66;4500099;31;35194;-86
2022/01/18 13:58:25;;;;;;;;;;;;;;;5.82;45.97;100711.50;4485778;31;33583;-85
2022/01/18 14:01:03;;;;;;;;;;;;;;;5.82;45.80;100717.53;4500162;31;34615;-84
2022/01/18 14:03:31;;;;;;;;;;;;;;;5.54;46.69;100721.91;4499949;31;34103;-84
2022/01/18 14:05:59;;;;;;;;;;;;;;;5.91;46.03;100730.06;4499958;31;34168;-85
2022/01/18 14:08:35;;;;;;;;;;;;;;;6.05;45.92;100735.97;4485830;31;33260;-89
2022/01/18 14:11:04;;;;;;;;;;;;;;;5.46;47.20;100734.34;4500079;31;34193;-88
2022/01/18 14:13:35;;;;;;;;;;;;;;;5.80;46.28;100726.88;4500352;31;34494;-87
2022/01/18 14:16:19;;;;;;;;;;;;;;;5.73;46.53;100737.59;4500126;31;34197;-87
2022/01/18 14:18:52;;;;;;;;;;;;;;;6.07;46.10;100734.41;4500131;31;33248;-87
2022/01/18 14:21:27;;;;;;;;;;;;;;;5.83;45.98;100719.31;4497159;31;34661;-84
2022/01/18 14:24:06;;;;;;;;;;;;;;;6.24;45.91;100719.88;4469665;32;35194;-87
2022/01/18 14:26:35;;;;;;;;;;;;;;;6.15;46.10;100719.38;4468873;32;34612;-85
2022/01/18 14:29:03;;;;;;;;;;;;;;;5.95;46.46;100713.12;4477608;31;33320;-85